sensor_id;sensor_type;location;lat;lon;timestamp;pressure;altitude;pressure_sealevel;temperature;humidity
61128;BME280;47013;42.664;23.242;2023-01-28T00:01:11;93363.50;;;-0.09;92.92
61128;BME280;47013;42.664;23.242;2023-01-28T00:03:37;93366.88;;;-0.12;93.71
61128;BME280;47013;42.664;23.242;2023-01-28T00:06:03;93360.84;;;-0.09;94.06
61128;BME280;47013;42.664;23.242;2023-01-28T00:08:29;93370.47;;;-0.01;94.82
61128;BME280;47013;42.664;23.242;2023-01-28T00:10:57;93375.91;;;0.03;93.97
61128;BME280;47013;42.664;23.242;2023-01-28T00:13:22;93381.28;;;0.06;93.76
61128;BME280;47013;42.664;23.242;2023-01-28T00:15:53;93393.03;;;0.02;91.96
61128;BME280;47013;42.664;23.242;2023-01-28T00:18:18;93394.97;;;0.05;92.35
61128;BME280;47013;42.664;23.242;2023-01-28T00:20:43;93396.09;;;0.04;92.22
61128;BME280;47013;42.664;23.242;2023-01-28T00:23:09;93393.44;;;0.04;92.22
61128;BME280;47013;42.664;23.242;2023-01-28T00:25:37;93392.66;;;0.03;92.05
61128;BME280;47013;42.664;23.242;2023-01-28T00:28:02;93396.66;;;-0.07;92.01
61128;BME280;47013;42.664;23.242;2023-01-28T00:30:30;93397.06;;;-0.05;92.44
61128;BME280;47013;42.664;23.242;2023-01-28T00:32:55;93401.84;;;-0.14;92.85
61128;BME280;47013;42.664;23.242;2023-01-28T00:35:20;93402.19;;;-0.15;93.44
61128;BME280;47013;42.664;23.242;2023-01-28T00:37:46;93402.84;;;-0.22;92.59
61128;BME280;47013;42.664;23.242;2023-01-28T00:40:11;93399.34;;;-0.26;93.17
61128;BME280;47013;42.664;23.242;2023-01-28T00:42:36;93407.38;;;-0.22;93.80
61128;BME280;47013;42.664;23.242;2023-01-28T00:45:02;93410.13;;;-0.19;92.93
61128;BME280;47013;42.664;23.242;2023-01-28T00:47:27;93408.22;;;-0.18;93.09
61128;BME280;47013;42.664;23.242;2023-01-28T00:49:52;93403.41;;;-0.13;93.93
61128;BME280;47013;42.664;23.242;2023-01-28T00:52:17;93412.66;;;-0.07;93.73
61128;BME280;47013;42.664;23.242;2023-01-28T00:54:43;93410.03;;;-0.03;92.59
61128;BME280;47013;42.664;23.242;2023-01-28T00:57:08;93414.69;;;0.00;92.26
61128;BME280;47013;42.664;23.242;2023-01-28T00:59:33;93417.63;;;-0.05;92.42
61128;BME280;47013;42.664;23.242;2023-01-28T01:01:58;93413.56;;;0.01;92.28
61128;BME280;47013;42.664;23.242;2023-01-28T01:04:36;93421.06;;;-0.05;91.55
61128;BME280;47013;42.664;23.242;2023-01-28T01:07:01;93412.44;;;-0.17;91.73
61128;BME280;47013;42.664;23.242;2023-01-28T01:09:27;93414.38;;;-0.14;91.84
61128;BME280;47013;42.664;23.242;2023-01-28T01:11:52;93409.81;;;-0.14;92.54
61128;BME280;47013;42.664;23.242;2023-01-28T01:14:17;93408.03;;;-0.10;92.51
61128;BME280;47013;42.664;23.242;2023-01-28T01:16:42;93413.84;;;-0.23;92.51
61128;BME280;47013;42.664;23.242;2023-01-28T01:19:08;93417.69;;;-0.21;93.06
61128;BME280;47013;42.664;23.242;2023-01-28T01:21:33;93423.03;;;-0.21;93.04
61128;BME280;47013;42.664;23.242;2023-01-28T01:23:58;93422.38;;;-0.34;94.14
61128;BME280;47013;42.664;23.242;2023-01-28T01:26:23;93414.50;;;-0.26;94.99
61128;BME280;47013;42.664;23.242;2023-01-28T01:28:51;93416.63;;;-0.16;95.58
61128;BME280;47013;42.664;23.242;2023-01-28T01:31:17;93419.03;;;-0.11;93.55
61128;BME280;47013;42.664;23.242;2023-01-28T01:33:44;93419.94;;;-0.04;92.24
61128;BME280;47013;42.664;23.242;2023-01-28T01:36:09;93429.81;;;-0.04;92.92
61128;BME280;47013;42.664;23.242;2023-01-28T01:38:35;93432.63;;;0.03;93.46
61128;BME280;47013;42.664;23.242;2023-01-28T01:41:02;93431.56;;;0.08;91.79
61128;BME280;47013;42.664;23.242;2023-01-28T01:43:45;93424.84;;;-0.06;92.30
61128;BME280;47013;42.664;23.242;2023-01-28T01:46:10;93428.28;;;-0.05;92.89
61128;BME280;47013;42.664;23.242;2023-01-28T01:48:36;93427.44;;;-0.09;92.57
61128;BME280;47013;42.664;23.242;2023-01-28T01:51:03;93431.31;;;-0.07;92.47
61128;BME280;47013;42.664;23.242;2023-01-28T01:53:30;93429.13;;;-0.20;92.63
61128;BME280;47013;42.664;23.242;2023-01-28T01:55:57;93433.75;;;-0.17;92.65
61128;BME280;47013;42.664;23.242;2023-01-28T01:58:25;93430.31;;;-0.18;94.35
61128;BME280;47013;42.664;23.242;2023-01-28T02:00:53;93427.38;;;-0.13;94.02
61128;BME280;47013;42.664;23.242;2023-01-28T02:03:20;93436.97;;;-0.08;93.56
61128;BME280;47013;42.664;23.242;2023-01-28T02:05:47;93433.25;;;-0.04;92.63
61128;BME280;47013;42.664;23.242;2023-01-28T02:08:13;93429.34;;;-0.10;93.52
61128;BME280;47013;42.664;23.242;2023-01-28T02:10:50;93437.03;;;-0.05;92.76
61128;BME280;47013;42.664;23.242;2023-01-28T02:13:16;93436.78;;;0.01;93.07
61128;BME280;47013;42.664;23.242;2023-01-28T02:15:43;93442.59;;;0.06;92.36
61128;BME280;47013;42.664;23.242;2023-01-28T02:18:09;93443.69;;;-0.34;93.05
61128;BME280;47013;42.664;23.242;2023-01-28T02:20:49;93439.59;;;-0.47;94.78
61128;BME280;47013;42.664;23.242;2023-01-28T02:26:04;93433.50;;;-0.28;94.29
61128;BME280;47013;42.664;23.242;2023-01-28T02:31:17;93436.91;;;-0.12;93.54
61128;BME280;47013;42.664;23.242;2023-01-28T02:33:58;93435.81;;;-0.26;93.02
61128;BME280;47013;42.664;23.242;2023-01-28T02:36:35;93435.16;;;-0.23;93.57
61128;BME280;47013;42.664;23.242;2023-01-28T02:39:08;93436.34;;;-0.21;92.81
61128;BME280;47013;42.664;23.242;2023-01-28T02:41:38;93439.50;;;-0.15;92.85
61128;BME280;47013;42.664;23.242;2023-01-28T02:44:05;93442.25;;;-0.12;93.52
61128;BME280;47013;42.664;23.242;2023-01-28T02:49:15;93444.75;;;-0.19;91.96
61128;BME280;47013;42.664;23.242;2023-01-28T02:59:41;93440.41;;;-0.08;92.42
61128;BME280;47013;42.664;23.242;2023-01-28T03:02:25;93435.22;;;-0.01;93.28
61128;BME280;47013;42.664;23.242;2023-01-28T03:07:22;93448.63;;;0.03;92.05
61128;BME280;47013;42.664;23.242;2023-01-28T03:09:51;93450.94;;;0.05;91.71
61128;BME280;47013;42.664;23.242;2023-01-28T03:12:21;93451.41;;;0.10;91.72
61128;BME280;47013;42.664;23.242;2023-01-28T03:15:09;93454.38;;;0.05;91.58
61128;BME280;47013;42.664;23.242;2023-01-28T03:18:17;93453.81;;;-0.04;90.08
61128;BME280;47013;42.664;23.242;2023-01-28T03:21:03;93453.38;;;-0.06;90.48
61128;BME280;47013;42.664;23.242;2023-01-28T03:24:02;93459.25;;;-0.16;90.98
61128;BME280;47013;42.664;23.242;2023-01-28T03:29:38;93463.53;;;-0.31;90.78
61128;BME280;47013;42.664;23.242;2023-01-28T03:32:23;93457.00;;;-0.34;91.50
61128;BME280;47013;42.664;23.242;2023-01-28T03:35:08;93460.94;;;-0.27;91.83
61128;BME280;47013;42.664;23.242;2023-01-28T03:37:53;93454.47;;;-0.26;92.33
61128;BME280;47013;42.664;23.242;2023-01-28T03:40:18;93457.69;;;-0.37;91.47
61128;BME280;47013;42.664;23.242;2023-01-28T03:42:44;93462.63;;;-0.39;91.37
61128;BME280;47013;42.664;23.242;2023-01-28T03:45:09;93462.72;;;-0.51;91.10
61128;BME280;47013;42.664;23.242;2023-01-28T03:47:34;93462.44;;;-0.46;91.80
61128;BME280;47013;42.664;23.242;2023-01-28T03:50:00;93465.81;;;-0.49;91.65
61128;BME280;47013;42.664;23.242;2023-01-28T03:52:26;93465.56;;;-0.60;92.24
61128;BME280;47013;42.664;23.242;2023-01-28T03:54:52;93470.25;;;-0.53;92.72
61128;BME280;47013;42.664;23.242;2023-01-28T03:57:19;93466.56;;;-0.48;91.78
61128;BME280;47013;42.664;23.242;2023-01-28T03:59:44;93474.81;;;-0.53;92.61
61128;BME280;47013;42.664;23.242;2023-01-28T04:02:10;93470.72;;;-0.51;92.83
61128;BME280;47013;42.664;23.242;2023-01-28T04:04:39;93475.97;;;-0.70;93.07
61128;BME280;47013;42.664;23.242;2023-01-28T04:07:05;93476.03;;;-0.67;92.30
61128;BME280;47013;42.664;23.242;2023-01-28T04:09:32;93471.25;;;-0.61;93.12
61128;BME280;47013;42.664;23.242;2023-01-28T04:11:58;93473.31;;;-0.86;92.88
61128;BME280;47013;42.664;23.242;2023-01-28T04:14:23;93483.28;;;-0.83;94.47
61128;BME280;47013;42.664;23.242;2023-01-28T04:16:48;93482.47;;;-0.68;94.93
61128;BME280;47013;42.664;23.242;2023-01-28T04:19:14;93485.41;;;-0.57;94.88
61128;BME280;47013;42.664;23.242;2023-01-28T04:21:39;93484.19;;;-0.60;93.53
61128;BME280;47013;42.664;23.242;2023-01-28T04:24:04;93497.16;;;-0.58;93.54
61128;BME280;47013;42.664;23.242;2023-01-28T04:26:30;93482.66;;;-0.61;94.05
61128;BME280;47013;42.664;23.242;2023-01-28T04:28:55;93492.53;;;-0.61;94.68
61128;BME280;47013;42.664;23.242;2023-01-28T04:31:20;93496.81;;;-0.56;93.76
61128;BME280;47013;42.664;23.242;2023-01-28T04:33:47;93497.34;;;-0.51;93.49
61128;BME280;47013;42.664;23.242;2023-01-28T04:36:12;93495.34;;;-0.54;93.06
61128;BME280;47013;42.664;23.242;2023-01-28T04:38:38;93499.66;;;-0.49;93.35
61128;BME280;47013;42.664;23.242;2023-01-28T04:41:03;93502.22;;;-0.53;92.22
61128;BME280;47013;42.664;23.242;2023-01-28T04:43:28;93504.81;;;-0.56;92.71
61128;BME280;47013;42.664;23.242;2023-01-28T04:45:53;93508.59;;;-0.57;91.77
61128;BME280;47013;42.664;23.242;2023-01-28T04:48:19;93514.50;;;-0.48;92.56
61128;BME280;47013;42.664;23.242;2023-01-28T04:50:44;93514.00;;;-0.54;92.77
61128;BME280;47013;42.664;23.242;2023-01-28T04:53:10;93518.47;;;-0.58;94.12
61128;BME280;47013;42.664;23.242;2023-01-28T04:55:35;93520.84;;;-0.53;94.44
61128;BME280;47013;42.664;23.242;2023-01-28T04:58:01;93523.63;;;-0.49;93.68
61128;BME280;47013;42.664;23.242;2023-01-28T05:00:26;93524.41;;;-0.49;92.95
61128;BME280;47013;42.664;23.242;2023-01-28T05:02:51;93528.94;;;-0.49;92.39
61128;BME280;47013;42.664;23.242;2023-01-28T05:05:17;93529.78;;;-0.45;92.44
61128;BME280;47013;42.664;23.242;2023-01-28T05:07:42;93529.09;;;-0.42;91.81
61128;BME280;47013;42.664;23.242;2023-01-28T05:10:08;93530.84;;;-0.50;91.03
61128;BME280;47013;42.664;23.242;2023-01-28T05:12:33;93533.75;;;-0.55;91.36
61128;BME280;47013;42.664;23.242;2023-01-28T05:14:58;93537.28;;;-0.51;92.09
61128;BME280;47013;42.664;23.242;2023-01-28T05:17:27;93540.97;;;-0.55;91.18
61128;BME280;47013;42.664;23.242;2023-01-28T05:19:52;93540.88;;;-0.59;91.53
61128;BME280;47013;42.664;23.242;2023-01-28T05:22:18;93542.84;;;-0.56;92.25
61128;BME280;47013;42.664;23.242;2023-01-28T05:24:43;93541.50;;;-0.50;91.75
61128;BME280;47013;42.664;23.242;2023-01-28T05:27:08;93540.38;;;-0.49;92.18
61128;BME280;47013;42.664;23.242;2023-01-28T05:29:34;93549.91;;;-0.48;91.52
61128;BME280;47013;42.664;23.242;2023-01-28T05:31:59;93545.06;;;-0.42;90.61
61128;BME280;47013;42.664;23.242;2023-01-28T05:34:24;93547.25;;;-0.48;90.02
61128;BME280;47013;42.664;23.242;2023-01-28T05:36:49;93551.38;;;-0.50;91.25
61128;BME280;47013;42.664;23.242;2023-01-28T05:39:15;93549.72;;;-0.71;91.49
61128;BME280;47013;42.664;23.242;2023-01-28T05:41:40;93552.13;;;-0.66;92.43
61128;BME280;47013;42.664;23.242;2023-01-28T05:44:05;93557.09;;;-0.96;93.65
61128;BME280;47013;42.664;23.242;2023-01-28T05:46:30;93563.25;;;-0.92;93.29
61128;BME280;47013;42.664;23.242;2023-01-28T05:48:56;93560.44;;;-0.83;93.52
61128;BME280;47013;42.664;23.242;2023-01-28T05:51:21;93566.31;;;-0.77;93.03
61128;BME280;47013;42.664;23.242;2023-01-28T05:53:46;93563.47;;;-0.69;92.18
61128;BME280;47013;42.664;23.242;2023-01-28T05:56:11;93563.38;;;-0.72;92.56
61128;BME280;47013;42.664;23.242;2023-01-28T05:58:36;93557.38;;;-0.69;92.04
61128;BME280;47013;42.664;23.242;2023-01-28T06:01:02;93561.75;;;-0.77;91.93
61128;BME280;47013;42.664;23.242;2023-01-28T06:03:27;93570.00;;;-0.66;92.81
61128;BME280;47013;42.664;23.242;2023-01-28T06:05:52;93561.41;;;-0.60;92.39
61128;BME280;47013;42.664;23.242;2023-01-28T06:08:17;93571.56;;;-0.65;92.14
61128;BME280;47013;42.664;23.242;2023-01-28T06:10:43;93577.31;;;-0.63;92.18
61128;BME280;47013;42.664;23.242;2023-01-28T06:13:08;93574.72;;;-0.60;92.45
61128;BME280;47013;42.664;23.242;2023-01-28T06:15:33;93583.50;;;-0.59;91.94
61128;BME280;47013;42.664;23.242;2023-01-28T06:17:58;93586.75;;;-0.50;92.49
61128;BME280;47013;42.664;23.242;2023-01-28T06:20:24;93595.53;;;-0.49;92.17
61128;BME280;47013;42.664;23.242;2023-01-28T06:22:52;93599.47;;;-0.43;92.47
61128;BME280;47013;42.664;23.242;2023-01-28T06:25:17;93604.38;;;-0.45;91.90
61128;BME280;47013;42.664;23.242;2023-01-28T06:27:43;93604.28;;;-0.49;91.13
61128;BME280;47013;42.664;23.242;2023-01-28T06:30:08;93597.16;;;-0.45;91.87
61128;BME280;47013;42.664;23.242;2023-01-28T06:32:33;93605.75;;;-0.36;91.19
61128;BME280;47013;42.664;23.242;2023-01-28T06:34:59;93605.13;;;-0.29;91.41
61128;BME280;47013;42.664;23.242;2023-01-28T06:37:24;93606.50;;;-0.35;90.63
61128;BME280;47013;42.664;23.242;2023-01-28T06:39:50;93615.94;;;-0.53;91.59
61128;BME280;47013;42.664;23.242;2023-01-28T06:42:15;93622.94;;;-0.49;93.02
61128;BME280;47013;42.664;23.242;2023-01-28T06:44:40;93630.66;;;-0.44;91.92
61128;BME280;47013;42.664;23.242;2023-01-28T06:47:06;93630.72;;;-0.40;92.88
61128;BME280;47013;42.664;23.242;2023-01-28T06:49:31;93644.56;;;-0.35;91.77
61128;BME280;47013;42.664;23.242;2023-01-28T06:51:56;93639.41;;;-0.27;92.14
61128;BME280;47013;42.664;23.242;2023-01-28T06:54:21;93641.91;;;-0.19;90.77
61128;BME280;47013;42.664;23.242;2023-01-28T06:56:47;93642.69;;;-0.18;90.74
61128;BME280;47013;42.664;23.242;2023-01-28T06:59:12;93644.66;;;-0.31;89.97
61128;BME280;47013;42.664;23.242;2023-01-28T07:01:37;93650.59;;;-0.38;90.62
61128;BME280;47013;42.664;23.242;2023-01-28T07:04:02;93653.25;;;-0.38;92.04
61128;BME280;47013;42.664;23.242;2023-01-28T07:06:28;93653.94;;;-0.41;91.88
61128;BME280;47013;42.664;23.242;2023-01-28T07:08:53;93656.50;;;-0.44;91.17
61128;BME280;47013;42.664;23.242;2023-01-28T07:11:18;93660.81;;;-0.40;91.93
61128;BME280;47013;42.664;23.242;2023-01-28T07:13:44;93665.69;;;-0.42;91.57
61128;BME280;47013;42.664;23.242;2023-01-28T07:16:10;93662.88;;;-0.33;91.73
61128;BME280;47013;42.664;23.242;2023-01-28T07:18:35;93673.97;;;-0.31;90.88
61128;BME280;47013;42.664;23.242;2023-01-28T07:21:00;93674.31;;;-0.33;91.57
61128;BME280;47013;42.664;23.242;2023-01-28T07:23:26;93665.19;;;-0.32;91.52
61128;BME280;47013;42.664;23.242;2023-01-28T07:25:51;93676.63;;;-0.31;90.30
61128;BME280;47013;42.664;23.242;2023-01-28T07:28:16;93685.38;;;-0.31;90.52
61128;BME280;47013;42.664;23.242;2023-01-28T07:30:48;93681.78;;;-0.38;90.99
61128;BME280;47013;42.664;23.242;2023-01-28T07:33:15;93681.19;;;-0.32;91.20
61128;BME280;47013;42.664;23.242;2023-01-28T07:35:40;93683.56;;;-0.26;92.03
61128;BME280;47013;42.664;23.242;2023-01-28T07:38:05;93681.44;;;-0.37;91.05
61128;BME280;47013;42.664;23.242;2023-01-28T07:40:31;93691.47;;;-0.46;90.36
61128;BME280;47013;42.664;23.242;2023-01-28T07:42:56;93685.66;;;-0.36;91.83
61128;BME280;47013;42.664;23.242;2023-01-28T07:45:22;93689.72;;;-0.26;91.13
61128;BME280;47013;42.664;23.242;2023-01-28T07:47:54;93701.06;;;-0.57;90.80
61128;BME280;47013;42.664;23.242;2023-01-28T07:50:20;93703.03;;;-0.54;92.33
61128;BME280;47013;42.664;23.242;2023-01-28T07:52:45;93696.09;;;-0.58;91.51
61128;BME280;47013;42.664;23.242;2023-01-28T07:55:11;93704.78;;;-0.46;93.04
61128;BME280;47013;42.664;23.242;2023-01-28T07:57:49;93699.81;;;-0.32;92.17
61128;BME280;47013;42.664;23.242;2023-01-28T08:00:14;93701.72;;;-0.16;93.40
61128;BME280;47013;42.664;23.242;2023-01-28T08:02:40;93710.75;;;-0.05;91.73
61128;BME280;47013;42.664;23.242;2023-01-28T08:05:05;93710.25;;;0.05;91.27
61128;BME280;47013;42.664;23.242;2023-01-28T08:07:30;93708.88;;;0.11;91.13
61128;BME280;47013;42.664;23.242;2023-01-28T08:09:56;93712.84;;;0.17;88.71
61128;BME280;47013;42.664;23.242;2023-01-28T08:12:21;93709.13;;;0.22;88.89
61128;BME280;47013;42.664;23.242;2023-01-28T08:14:46;93716.00;;;0.23;87.78
61128;BME280;47013;42.664;23.242;2023-01-28T08:17:11;93723.06;;;0.15;87.38
61128;BME280;47013;42.664;23.242;2023-01-28T08:19:37;93720.22;;;0.24;88.19
61128;BME280;47013;42.664;23.242;2023-01-28T08:22:02;93721.16;;;0.32;88.09
61128;BME280;47013;42.664;23.242;2023-01-28T08:24:27;93721.31;;;0.39;87.66
61128;BME280;47013;42.664;23.242;2023-01-28T08:26:52;93723.31;;;0.42;86.42
61128;BME280;47013;42.664;23.242;2023-01-28T08:29:18;93733.63;;;0.43;86.40
61128;BME280;47013;42.664;23.242;2023-01-28T08:31:43;93729.66;;;0.53;87.27
61128;BME280;47013;42.664;23.242;2023-01-28T08:34:08;93729.91;;;0.48;85.83
61128;BME280;47013;42.664;23.242;2023-01-28T08:36:33;93724.84;;;0.43;86.48
61128;BME280;47013;42.664;23.242;2023-01-28T08:38:59;93728.72;;;0.45;86.48
61128;BME280;47013;42.664;23.242;2023-01-28T08:41:24;93728.97;;;0.56;86.58
61128;BME280;47013;42.664;23.242;2023-01-28T08:43:49;93725.00;;;0.66;87.11
61128;BME280;47013;42.664;23.242;2023-01-28T08:46:14;93729.44;;;0.77;87.43
61128;BME280;47013;42.664;23.242;2023-01-28T08:48:40;93733.66;;;0.78;85.50
61128;BME280;47013;42.664;23.242;2023-01-28T08:51:05;93734.69;;;0.74;84.61
61128;BME280;47013;42.664;23.242;2023-01-28T08:53:30;93739.88;;;0.67;84.39
61128;BME280;47013;42.664;23.242;2023-01-28T08:55:56;93732.19;;;0.30;86.57
61128;BME280;47013;42.664;23.242;2023-01-28T08:58:21;93730.13;;;0.39;87.67
61128;BME280;47013;42.664;23.242;2023-01-28T09:00:46;93737.91;;;0.48;87.86
61128;BME280;47013;42.664;23.242;2023-01-28T09:03:12;93739.28;;;0.57;86.71
61128;BME280;47013;42.664;23.242;2023-01-28T09:05:37;93734.81;;;0.62;86.57
61128;BME280;47013;42.664;23.242;2023-01-28T09:08:03;93736.44;;;0.66;86.37
61128;BME280;47013;42.664;23.242;2023-01-28T09:10:29;93741.56;;;0.75;86.50
61128;BME280;47013;42.664;23.242;2023-01-28T09:12:54;93739.19;;;0.70;85.35
61128;BME280;47013;42.664;23.242;2023-01-28T09:15:20;93739.00;;;0.63;85.43
61128;BME280;47013;42.664;23.242;2023-01-28T09:17:45;93746.34;;;0.66;86.37
61128;BME280;47013;42.664;23.242;2023-01-28T09:20:10;93736.78;;;0.65;86.24
61128;BME280;47013;42.664;23.242;2023-01-28T09:22:36;93747.91;;;0.67;85.75
61128;BME280;47013;42.664;23.242;2023-01-28T09:25:02;93743.94;;;0.61;86.11
61128;BME280;47013;42.664;23.242;2023-01-28T09:27:27;93745.69;;;0.53;85.62
61128;BME280;47013;42.664;23.242;2023-01-28T09:29:52;93739.03;;;0.47;86.14
61128;BME280;47013;42.664;23.242;2023-01-28T09:32:17;93738.44;;;0.53;86.84
61128;BME280;47013;42.664;23.242;2023-01-28T09:34:43;93737.22;;;0.51;86.29
61128;BME280;47013;42.664;23.242;2023-01-28T09:37:08;93739.66;;;0.56;85.69
61128;BME280;47013;42.664;23.242;2023-01-28T09:39:35;93738.88;;;0.55;86.20
61128;BME280;47013;42.664;23.242;2023-01-28T09:47:00;93743.69;;;0.50;86.52
61128;BME280;47013;42.664;23.242;2023-01-28T09:49:30;93739.28;;;0.57;86.46
61128;BME280;47013;42.664;23.242;2023-01-28T09:51:56;93736.91;;;0.52;86.10
61128;BME280;47013;42.664;23.242;2023-01-28T09:54:23;93738.69;;;0.48;86.50
61128;BME280;47013;42.664;23.242;2023-01-28T09:56:52;93741.53;;;0.55;86.18
61128;BME280;47013;42.664;23.242;2023-01-28T09:59:20;93730.75;;;0.52;86.52
61128;BME280;47013;42.664;23.242;2023-01-28T10:04:52;93742.84;;;0.46;88.04
61128;BME280;47013;42.664;23.242;2023-01-28T10:07:20;93736.91;;;0.52;87.76
61128;BME280;47013;42.664;23.242;2023-01-28T10:17:29;93734.63;;;0.70;86.54
61128;BME280;47013;42.664;23.242;2023-01-28T10:19:58;93728.88;;;0.68;86.88
61128;BME280;47013;42.664;23.242;2023-01-28T10:22:27;93727.38;;;0.71;86.59
61128;BME280;47013;42.664;23.242;2023-01-28T10:24:55;93733.84;;;0.70;86.70
61128;BME280;47013;42.664;23.242;2023-01-28T10:27:28;93736.78;;;0.65;86.57
61128;BME280;47013;42.664;23.242;2023-01-28T10:29:53;93739.13;;;0.66;88.12
61128;BME280;47013;42.664;23.242;2023-01-28T10:32:30;93739.88;;;0.67;87.42
61128;BME280;47013;42.664;23.242;2023-01-28T10:34:56;93731.78;;;0.63;88.17
61128;BME280;47013;42.664;23.242;2023-01-28T10:37:23;93736.00;;;0.64;87.57
61128;BME280;47013;42.664;23.242;2023-01-28T10:39:49;93732.56;;;0.64;87.43
61128;BME280;47013;42.664;23.242;2023-01-28T10:42:27;93732.22;;;0.65;87.68
61128;BME280;47013;42.664;23.242;2023-01-28T10:44:53;93728.88;;;0.68;86.98
61128;BME280;47013;42.664;23.242;2023-01-28T10:47:27;93741.56;;;0.75;89.20
61128;BME280;47013;42.664;23.242;2023-01-28T10:49:53;93743.31;;;0.67;87.99
61128;BME280;47013;42.664;23.242;2023-01-28T10:52:20;93734.28;;;0.72;87.52
61128;BME280;47013;42.664;23.242;2023-01-28T10:54:45;93729.72;;;0.72;88.07
61128;BME280;47013;42.664;23.242;2023-01-28T10:57:11;93728.09;;;0.68;87.87
61128;BME280;47013;42.664;23.242;2023-01-28T10:59:37;93729.47;;;0.62;87.80
61128;BME280;47013;42.664;23.242;2023-01-28T11:04:43;93735.56;;;0.62;87.07
61128;BME280;47013;42.664;23.242;2023-01-28T11:07:18;93727.03;;;1.07;100.00
61128;BME280;47013;42.664;23.242;2023-01-28T11:09:45;93722.41;;;1.04;89.36
61128;BME280;47013;42.664;23.242;2023-01-28T11:12:11;93726.69;;;1.09;87.40
61128;BME280;47013;42.664;23.242;2023-01-28T11:14:36;93736.25;;;1.10;85.63
61128;BME280;47013;42.664;23.242;2023-01-28T11:17:02;93728.44;;;1.21;87.92
61128;BME280;47013;42.664;23.242;2023-01-28T11:19:34;93733.44;;;1.22;86.00
61128;BME280;47013;42.664;23.242;2023-01-28T11:22:00;93732.88;;;1.32;86.16
61128;BME280;47013;42.664;23.242;2023-01-28T11:24:30;93729.22;;;1.40;85.92
61128;BME280;47013;42.664;23.242;2023-01-28T11:26:56;93726.53;;;1.40;84.39
61128;BME280;47013;42.664;23.242;2023-01-28T11:31:50;93724.38;;;1.46;84.41
61128;BME280;47013;42.664;23.242;2023-01-28T11:34:16;93730.06;;;1.44;84.15
61128;BME280;47013;42.664;23.242;2023-01-28T11:36:49;93722.84;;;1.68;94.72
61128;BME280;47013;42.664;23.242;2023-01-28T11:39:24;93732.34;;;1.65;85.16
61128;BME280;47013;42.664;23.242;2023-01-28T11:41:52;93721.19;;;1.60;83.46
61128;BME280;47013;42.664;23.242;2023-01-28T11:44:22;93725.19;;;1.69;83.43
61128;BME280;47013;42.664;23.242;2023-01-28T11:54:37;93725.47;;;1.84;82.12
61128;BME280;47013;42.664;23.242;2023-01-28T11:59:54;93713.69;;;1.88;81.11
61128;BME280;47013;42.664;23.242;2023-01-28T12:07:52;93725.50;;;1.87;80.09
61128;BME280;47013;42.664;23.242;2023-01-28T12:25:59;93725.94;;;1.89;81.10
61128;BME280;47013;42.664;23.242;2023-01-28T12:30:59;93719.50;;;1.94;98.85
61128;BME280;47013;42.664;23.242;2023-01-28T12:33:33;93725.47;;;1.64;80.89
61128;BME280;47013;42.664;23.242;2023-01-28T12:38:58;93724.38;;;1.46;81.17
61128;BME280;47013;42.664;23.242;2023-01-28T12:41:30;93722.94;;;1.52;82.21
61128;BME280;47013;42.664;23.242;2023-01-28T12:44:07;93729.38;;;1.47;80.01
61128;BME280;47013;42.664;23.242;2023-01-28T12:51:50;93735.03;;;1.65;82.40
61128;BME280;47013;42.664;23.242;2023-01-28T12:57:01;93741.50;;;1.64;83.49
61128;BME280;47013;42.664;23.242;2023-01-28T12:59:28;93748.34;;;1.62;82.04
61128;BME280;47013;42.664;23.242;2023-01-28T13:04:43;93748.59;;;1.76;91.17
61128;BME280;47013;42.664;23.242;2023-01-28T13:07:27;93745.97;;;1.80;nan
61128;BME280;47013;42.664;23.242;2023-01-28T13:12:45;93756.72;;;2.48;89.17
61128;BME280;47013;42.664;23.242;2023-01-28T13:15:15;93759.69;;;2.43;80.28
61128;BME280;47013;42.664;23.242;2023-01-28T13:17:52;93759.09;;;2.30;79.20
61128;BME280;47013;42.664;23.242;2023-01-28T13:20:28;93759.69;;;2.20;80.07
61128;BME280;47013;42.664;23.242;2023-01-28T13:23:01;93757.19;;;2.31;85.76
61128;BME280;47013;42.664;23.242;2023-01-28T13:25:27;93760.59;;;2.28;80.28
61128;BME280;47013;42.664;23.242;2023-01-28T13:27:57;93769.88;;;2.11;79.54
61128;BME280;47013;42.664;23.242;2023-01-28T13:33:01;93770.81;;;1.99;80.60
61128;BME280;47013;42.664;23.242;2023-01-28T13:35:34;93773.34;;;1.92;79.46
61128;BME280;47013;42.664;23.242;2023-01-28T13:38:15;93780.53;;;1.88;80.28
61128;BME280;47013;42.664;23.242;2023-01-28T13:40:41;93783.59;;;1.90;80.50
61128;BME280;47013;42.664;23.242;2023-01-28T13:45:58;93779.59;;;2.00;80.98
61128;BME280;47013;42.664;23.242;2023-01-28T13:50:53;93781.66;;;1.87;80.37
61128;BME280;47013;42.664;23.242;2023-01-28T13:53:26;93780.47;;;1.85;80.71
61128;BME280;47013;42.664;23.242;2023-01-28T13:55:56;93793.88;;;1.88;81.44
61128;BME280;47013;42.664;23.242;2023-01-28T14:03:46;93788.47;;;1.85;81.21
61128;BME280;47013;42.664;23.242;2023-01-28T14:11:18;93800.22;;;1.41;80.89
61128;BME280;47013;42.664;23.242;2023-01-28T14:18:48;93804.56;;;1.30;83.91
61128;BME280;47013;42.664;23.242;2023-01-28T14:21:16;93807.56;;;1.29;83.57
61128;BME280;47013;42.664;23.242;2023-01-28T14:23:49;93811.66;;;1.23;83.59
61128;BME280;47013;42.664;23.242;2023-01-28T14:31:29;93820.97;;;1.13;84.93
61128;BME280;47013;42.664;23.242;2023-01-28T14:33:57;93822.63;;;1.17;84.67
61128;BME280;47013;42.664;23.242;2023-01-28T14:36:24;93823.22;;;1.11;84.45
61128;BME280;47013;42.664;23.242;2023-01-28T14:38:49;93820.13;;;1.09;84.60
61128;BME280;47013;42.664;23.242;2023-01-28T14:41:19;93817.19;;;1.14;84.48
61128;BME280;47013;42.664;23.242;2023-01-28T14:43:45;93822.94;;;1.16;84.40
61128;BME280;47013;42.664;23.242;2023-01-28T14:46:30;93825.41;;;1.05;85.11
61128;BME280;47013;42.664;23.242;2023-01-28T14:49:16;93831.19;;;0.92;85.83
61128;BME280;47013;42.664;23.242;2023-01-28T14:51:53;93831.00;;;0.84;87.00
61128;BME280;47013;42.664;23.242;2023-01-28T14:55:07;93835.72;;;0.91;86.98
61128;BME280;47013;42.664;23.242;2023-01-28T14:59:45;93842.63;;;0.76;86.96
61128;BME280;47013;42.664;23.242;2023-01-28T15:02:19;93838.00;;;0.73;87.29